createdAt,value
2022-08-06T00:00:15.998Z,61.21
2022-08-06T00:02:42.758Z,61.25
2022-08-06T00:05:10.116Z,61.68
2022-08-06T00:07:48.418Z,61.04
2022-08-06T00:10:17.138Z,61.55
2022-08-06T00:12:45.837Z,61.57
2022-08-06T00:15:14.968Z,61.58
2022-08-06T00:17:46.081Z,61.82
2022-08-06T00:20:26.025Z,62.18
2022-08-06T00:22:59.522Z,62.39
2022-08-06T00:25:26.377Z,62.49
2022-08-06T00:27:53.039Z,62.14
2022-08-06T00:30:22.476Z,62.18
2022-08-06T00:32:51.824Z,62.08
2022-08-06T00:35:23.479Z,62.43
2022-08-06T00:37:57.096Z,62.73
2022-08-06T00:40:29.480Z,63.51
2022-08-06T00:43:02.552Z,63.88
2022-08-06T00:45:34.160Z,64.14
2022-08-06T00:48:06.767Z,64.05
2022-08-06T00:50:35.353Z,64.62
2022-08-06T00:53:03.127Z,64.64
2022-08-06T00:55:31.443Z,64.94
2022-08-06T00:57:59.681Z,64.72
2022-08-06T01:00:29.802Z,64.73
2022-08-06T01:02:57.003Z,64.90
2022-08-06T01:06:04.354Z,65.08
2022-08-06T01:08:11.235Z,65.05
2022-08-06T01:10:42.434Z,65.17
2022-08-06T01:13:25.376Z,64.95
2022-08-06T01:16:08.670Z,64.79
2022-08-06T01:18:58.595Z,64.44
2022-08-06T01:22:00.931Z,64.76
2022-08-06T01:24:55.145Z,64.23
2022-08-06T01:27:42.750Z,64.04
2022-08-06T01:30:25.126Z,63.73
2022-08-06T01:32:59.409Z,63.37
2022-08-06T01:35:47.587Z,63.53
2022-08-06T01:38:23.664Z,63.11
2022-08-06T01:40:52.305Z,62.27
2022-08-06T01:44:01.308Z,62.38
2022-08-06T01:46:09.604Z,62.12
2022-08-06T01:48:39.026Z,100.00
2022-08-06T01:51:08.729Z,100.00
2022-08-06T01:54:06.565Z,100.00
2022-08-06T01:56:56.853Z,100.00
2022-08-06T01:59:26.419Z,100.00
2022-08-06T02:01:55.918Z,100.00
2022-08-06T02:04:29.338Z,100.00
2022-08-06T02:06:57.557Z,100.00
2022-08-06T02:09:27.775Z,100.00
2022-08-06T02:12:17.630Z,100.00
2022-08-06T02:15:02.657Z,100.00
2022-08-06T02:18:03.667Z,100.00
2022-08-06T02:20:35.678Z,58.23
2022-08-06T02:23:08.697Z,58.12
2022-08-06T02:25:41.383Z,58.48
2022-08-06T02:28:09.623Z,58.38
2022-08-06T02:30:42.378Z,58.08
2022-08-06T02:33:11.294Z,58.52
2022-08-06T02:36:03.953Z,58.25
2022-08-06T02:38:52.660Z,58.65
2022-08-06T02:41:31.711Z,58.96
2022-08-06T02:44:14.153Z,58.59
2022-08-06T02:46:46.122Z,59.08
2022-08-06T02:49:25.274Z,59.32
2022-08-06T02:52:32.899Z,59.01
2022-08-06T02:55:10.725Z,59.51
2022-08-06T02:57:51.438Z,59.62
2022-08-06T03:00:19.203Z,59.44
2022-08-06T03:02:49.340Z,59.46
2022-08-06T03:05:18.846Z,59.50
2022-08-06T03:07:48.467Z,57.89
2022-08-06T03:10:15.481Z,100.00
2022-08-06T03:12:43.719Z,100.00
2022-08-06T03:15:16.827Z,100.00
2022-08-06T03:18:01.639Z,100.00
2022-08-06T03:20:31.250Z,100.00
2022-08-06T03:23:01.957Z,100.00
2022-08-06T03:25:31.060Z,100.00
2022-08-06T03:28:02.600Z,100.00
2022-08-06T03:30:32.756Z,100.00
2022-08-06T03:33:29.926Z,100.00
2022-08-06T03:35:57.912Z,100.00
2022-08-06T03:38:29.508Z,100.00
2022-08-06T03:40:58.740Z,100.00
2022-08-06T03:43:28.394Z,100.00
2022-08-06T03:45:59.880Z,100.00
2022-08-06T03:48:38.177Z,100.00
2022-08-06T03:51:10.067Z,100.00
2022-08-06T03:53:38.549Z,100.00
2022-08-06T03:56:06.222Z,100.00
2022-08-06T03:58:33.770Z,100.00
2022-08-06T04:01:04.482Z,100.00
2022-08-06T04:03:39.388Z,100.00
2022-08-06T04:06:16.360Z,100.00
2022-08-06T04:08:46.324Z,100.00
2022-08-06T04:12:12.946Z,100.00
2022-08-06T04:14:07.440Z,100.00
2022-08-06T04:16:36.769Z,100.00
2022-08-06T04:19:08.929Z,100.00
2022-08-06T04:23:04.513Z,100.00
2022-08-06T04:24:23.547Z,100.00
2022-08-06T04:26:59.760Z,100.00
2022-08-06T04:29:33.091Z,100.00
2022-08-06T04:32:20.099Z,100.00
2022-08-06T04:36:03.750Z,100.00
2022-08-06T04:37:40.476Z,100.00
2022-08-06T04:40:13.346Z,100.00
2022-08-06T04:42:42.348Z,100.00
2022-08-06T04:46:16.111Z,100.00
2022-08-06T04:47:57.055Z,100.00
2022-08-06T04:50:24.887Z,100.00
2022-08-06T04:52:52.964Z,100.00
2022-08-06T04:55:25.390Z,100.00
2022-08-06T04:58:08.114Z,100.00
2022-08-06T05:01:03.362Z,100.00
2022-08-06T05:04:05.816Z,100.00
2022-08-06T05:06:34.694Z,100.00
2022-08-06T05:09:10.766Z,100.00
2022-08-06T05:11:59.587Z,100.00
2022-08-06T05:14:46.736Z,100.00
2022-08-06T05:17:16.096Z,100.00
2022-08-06T05:19:46.500Z,100.00
2022-08-06T05:22:19.653Z,100.00
2022-08-06T05:25:14.545Z,100.00
2022-08-06T05:28:04.020Z,100.00
2022-08-06T05:30:33.070Z,100.00
2022-08-06T05:33:02.298Z,100.00
2022-08-06T05:35:41.669Z,100.00
2022-08-06T05:38:21.159Z,100.00
2022-08-06T05:41:00.047Z,100.00
2022-08-06T05:44:00.041Z,100.00
2022-08-06T05:46:21.472Z,100.00
2022-08-06T05:49:23.398Z,100.00
2022-08-06T05:52:04.815Z,100.00
2022-08-06T05:54:38.487Z,100.00
2022-08-06T05:57:16.496Z,100.00
2022-08-06T05:59:57.604Z,100.00
2022-08-06T06:02:28.082Z,100.00
2022-08-06T06:06:03.416Z,100.00
2022-08-06T06:08:08.926Z,100.00
2022-08-06T06:10:34.767Z,100.00
2022-08-06T06:13:03.621Z,100.00
2022-08-06T06:16:02.006Z,100.00
2022-08-06T06:19:16.310Z,100.00
2022-08-06T06:22:16.038Z,100.00
2022-08-06T06:24:53.919Z,100.00
2022-08-06T06:27:42.712Z,100.00
2022-08-06T06:30:33.094Z,100.00
2022-08-06T06:33:16.664Z,100.00
2022-08-06T06:35:55.665Z,100.00
2022-08-06T06:38:44.241Z,100.00
2022-08-06T06:41:22.775Z,100.00
2022-08-06T06:43:55.497Z,100.00
2022-08-06T06:46:37.615Z,100.00
2022-08-06T06:49:59.533Z,100.00
2022-08-06T06:52:41.056Z,100.00
2022-08-06T06:55:55.586Z,100.00
2022-08-06T06:58:38.291Z,100.00
2022-08-06T07:01:27.263Z,100.00
2022-08-06T07:03:56.302Z,100.00
2022-08-06T07:06:31.537Z,100.00
2022-08-06T07:09:14.850Z,100.00
2022-08-06T07:12:02.293Z,100.00
2022-08-06T07:14:33.410Z,100.00
2022-08-06T07:17:01.324Z,100.00
2022-08-06T07:19:28.239Z,100.00
2022-08-06T07:21:57.997Z,100.00
2022-08-06T07:24:38.230Z,100.00
2022-08-06T07:27:14.383Z,100.00
2022-08-06T07:29:49.599Z,100.00
2022-08-06T07:32:30.733Z,100.00
2022-08-06T07:35:01.547Z,100.00
2022-08-06T07:37:43.733Z,100.00
2022-08-06T07:40:23.566Z,100.00
2022-08-06T07:43:01.782Z,100.00
2022-08-06T07:45:50.939Z,100.00
2022-08-06T07:48:22.702Z,100.00
2022-08-06T07:50:52.576Z,100.00
2022-08-06T07:53:40.736Z,100.00
2022-08-06T07:56:10.296Z,100.00
2022-08-06T07:58:39.674Z,100.00
2022-08-06T08:01:13.344Z,100.00
2022-08-06T08:04:02.901Z,100.00
2022-08-06T08:06:52.213Z,100.00
2022-08-06T08:09:59.113Z,100.00
2022-08-06T08:12:33.975Z,100.00
2022-08-06T08:14:56.760Z,100.00
2022-08-06T08:17:30.066Z,100.00
2022-08-06T08:20:16.418Z,100.00
2022-08-06T08:22:48.307Z,100.00
2022-08-06T08:25:39.895Z,100.00
2022-08-06T08:28:12.051Z,100.00
2022-08-06T08:30:41.464Z,100.00
2022-08-06T08:33:12.153Z,100.00
2022-08-06T08:35:50.630Z,100.00
2022-08-06T08:38:31.872Z,100.00
2022-08-06T08:41:05.031Z,100.00
2022-08-06T08:43:58.549Z,100.00
2022-08-06T08:46:30.331Z,100.00
2022-08-06T08:49:01.562Z,100.00
2022-08-06T08:51:28.733Z,100.00
2022-08-06T08:53:58.360Z,100.00
2022-08-06T08:57:08.862Z,100.00
2022-08-06T08:59:59.781Z,100.00
2022-08-06T09:01:59.629Z,100.00
2022-08-06T09:04:28.199Z,100.00
2022-08-06T09:06:56.505Z,100.00
2022-08-06T09:09:30.357Z,100.00
2022-08-06T09:12:04.743Z,100.00
2022-08-06T09:14:47.416Z,100.00
2022-08-06T09:17:18.052Z,100.00
2022-08-06T09:20:01.659Z,100.00
2022-08-06T09:22:29.019Z,100.00
2022-08-06T09:24:56.214Z,100.00
2022-08-06T09:27:47.499Z,100.00
2022-08-06T09:30:29.944Z,100.00
2022-08-06T09:32:57.912Z,42.85
2022-08-06T09:35:44.023Z,100.00
2022-08-06T09:38:17.342Z,100.00
2022-08-06T09:41:06.413Z,100.00
2022-08-06T09:43:34.437Z,100.00
2022-08-06T09:46:48.303Z,100.00
2022-08-06T09:49:48.005Z,100.00
2022-08-06T09:52:14.799Z,100.00
2022-08-06T09:54:46.398Z,100.00
2022-08-06T09:57:25.731Z,100.00
2022-08-06T10:00:00.028Z,100.00
2022-08-06T10:02:32.449Z,100.00
2022-08-06T10:05:19.363Z,100.00
2022-08-06T10:07:52.184Z,100.00
2022-08-06T10:10:28.620Z,100.00
2022-08-06T10:13:19.969Z,100.00
2022-08-06T10:16:00.519Z,100.00
2022-08-06T10:18:55.709Z,100.00
2022-08-06T10:21:41.160Z,100.00
2022-08-06T10:24:11.466Z,100.00
2022-08-06T10:26:38.818Z,100.00
2022-08-06T10:29:11.558Z,100.00
2022-08-06T10:31:38.499Z,100.00
2022-08-06T10:34:16.922Z,100.00
2022-08-06T10:37:10.948Z,100.00
2022-08-06T10:40:07.806Z,100.00
2022-08-06T10:42:40.314Z,100.00
2022-08-06T10:45:13.675Z,100.00
2022-08-06T10:48:57.727Z,100.00
2022-08-06T10:50:38.128Z,100.00
2022-08-06T10:53:07.144Z,100.00
2022-08-06T10:55:44.182Z,100.00
2022-08-06T10:58:12.971Z,100.00
2022-08-06T11:00:44.960Z,100.00
2022-08-06T11:03:53.954Z,100.00
2022-08-06T11:06:41.686Z,100.00
2022-08-06T11:10:00.738Z,100.00
2022-08-06T11:12:23.498Z,100.00
2022-08-06T11:14:51.004Z,100.00
2022-08-06T11:17:19.749Z,100.00
2022-08-06T11:19:57.472Z,100.00
2022-08-06T11:22:53.525Z,100.00
2022-08-06T11:25:45.126Z,100.00
2022-08-06T11:28:14.001Z,100.00
2022-08-06T11:30:48.956Z,100.00
2022-08-06T11:33:19.798Z,100.00
2022-08-06T11:35:53.741Z,100.00
2022-08-06T11:38:51.190Z,100.00
2022-08-06T11:41:54.017Z,100.00
2022-08-06T11:44:18.579Z,100.00
2022-08-06T11:46:49.891Z,100.00
2022-08-06T11:49:18.223Z,100.00
2022-08-06T11:51:59.439Z,100.00
2022-08-06T11:54:35.837Z,33.39
2022-08-06T11:57:02.553Z,34.19
2022-08-06T11:59:33.424Z,33.59
2022-08-06T12:02:09.693Z,32.70
2022-08-06T12:04:45.487Z,32.45
2022-08-06T12:07:33.055Z,32.67
2022-08-06T12:10:06.996Z,33.26
2022-08-06T12:12:38.361Z,33.37
2022-08-06T12:15:59.076Z,32.79
2022-08-06T12:18:20.523Z,32.08
2022-08-06T12:20:54.037Z,32.80
2022-08-06T12:23:23.683Z,100.00
2022-08-06T12:26:10.709Z,100.00
2022-08-06T12:28:37.891Z,100.00
2022-08-06T12:31:34.992Z,100.00
2022-08-06T12:33:52.310Z,100.00
2022-08-06T12:36:32.586Z,100.00
2022-08-06T12:39:04.966Z,100.00
2022-08-06T12:41:45.646Z,100.00
2022-08-06T12:44:14.825Z,100.00
2022-08-06T12:46:41.926Z,100.00
2022-08-06T12:49:10.758Z,100.00
2022-08-06T12:51:37.809Z,100.00
2022-08-06T12:54:08.161Z,100.00
2022-08-06T12:56:39.127Z,100.00
2022-08-06T12:59:16.306Z,100.00
2022-08-06T13:02:08.615Z,100.00
2022-08-06T13:04:39.857Z,100.00
2022-08-06T13:07:12.800Z,100.00
2022-08-06T13:14:02.417Z,100.00
2022-08-06T13:15:18.537Z,100.00
2022-08-06T13:18:13.413Z,100.00
2022-08-06T13:20:57.160Z,100.00
2022-08-06T13:23:47.853Z,100.00
2022-08-06T13:26:27.091Z,100.00
2022-08-06T13:30:34.534Z,100.00
2022-08-06T13:32:20.023Z,100.00
2022-08-06T13:34:56.004Z,100.00
2022-08-06T13:37:56.575Z,100.00
2022-08-06T13:40:37.015Z,100.00
2022-08-06T13:43:04.710Z,100.00
2022-08-06T13:45:56.310Z,100.00
2022-08-06T13:48:23.361Z,100.00
2022-08-06T13:50:50.472Z,100.00
2022-08-06T13:53:17.707Z,100.00
2022-08-06T13:56:01.719Z,100.00
2022-08-06T13:58:29.761Z,100.00
2022-08-06T14:00:56.379Z,100.00
2022-08-06T14:03:23.080Z,100.00
2022-08-06T14:05:51.411Z,100.00
2022-08-06T14:08:26.644Z,100.00
2022-08-06T14:11:01.943Z,100.00
2022-08-06T14:13:28.580Z,100.00
2022-08-06T14:15:55.629Z,100.00
2022-08-06T14:18:23.501Z,100.00
2022-08-06T14:20:55.279Z,100.00
2022-08-06T14:23:23.199Z,100.00
2022-08-06T14:25:59.625Z,100.00
2022-08-06T14:28:29.543Z,100.00
2022-08-06T14:30:56.128Z,100.00
2022-08-06T14:33:36.323Z,100.00
2022-08-06T14:36:03.424Z,100.00
2022-08-06T14:38:34.446Z,100.00
2022-08-06T14:41:27.344Z,100.00
2022-08-06T14:44:26.201Z,100.00
2022-08-06T14:46:53.200Z,100.00
2022-08-06T14:49:19.820Z,100.00
2022-08-06T14:52:19.292Z,100.00
2022-08-06T14:54:33.677Z,100.00
2022-08-06T14:57:16.034Z,100.00
2022-08-06T14:59:57.785Z,100.00
2022-08-06T15:02:27.492Z,100.00
2022-08-06T15:04:55.025Z,100.00
2022-08-06T15:07:25.346Z,100.00
2022-08-06T15:10:03.751Z,100.00
2022-08-06T15:12:40.482Z,100.00
2022-08-06T15:15:13.603Z,100.00
2022-08-06T15:18:03.793Z,100.00
2022-08-06T15:20:28.130Z,100.00
2022-08-06T15:22:55.961Z,100.00
2022-08-06T15:25:59.857Z,100.00
2022-08-06T15:28:10.428Z,100.00
2022-08-06T15:30:37.291Z,100.00
2022-08-06T15:33:11.519Z,100.00
2022-08-06T15:35:55.950Z,100.00
2022-08-06T15:38:24.688Z,100.00
2022-08-06T15:40:51.357Z,100.00
2022-08-06T15:43:20.143Z,100.00
2022-08-06T15:45:52.164Z,100.00
2022-08-06T15:48:28.607Z,100.00
2022-08-06T15:51:27.908Z,100.00
2022-08-06T15:53:43.723Z,100.00
2022-08-06T15:56:32.030Z,100.00
2022-08-06T15:59:01.910Z,100.00
2022-08-06T16:01:52.332Z,100.00
2022-08-06T16:04:20.304Z,100.00
2022-08-06T16:06:50.413Z,100.00
2022-08-06T16:13:03.902Z,100.00
2022-08-06T16:15:34.292Z,100.00
2022-08-06T16:18:30.636Z,100.00
2022-08-06T16:20:50.594Z,100.00
2022-08-06T16:23:57.326Z,100.00
2022-08-06T16:26:16.019Z,100.00
2022-08-06T16:28:51.916Z,100.00
2022-08-06T16:31:18.699Z,100.00
2022-08-06T16:33:53.968Z,100.00
2022-08-06T16:36:32.533Z,100.00
2022-08-06T16:39:00.573Z,100.00
2022-08-06T16:41:58.592Z,100.00
2022-08-06T16:44:14.100Z,100.00
2022-08-06T16:46:43.588Z,100.00
2022-08-06T16:49:21.010Z,100.00
2022-08-06T16:52:41.920Z,100.00
2022-08-06T16:54:35.742Z,100.00
2022-08-06T16:57:11.183Z,100.00
2022-08-06T16:59:42.474Z,100.00
2022-08-06T17:02:29.144Z,100.00
2022-08-06T17:04:55.932Z,100.00
2022-08-06T17:10:24.939Z,100.00
2022-08-06T17:12:57.952Z,100.00
2022-08-06T17:15:35.919Z,100.00
2022-08-06T17:18:03.985Z,100.00
2022-08-06T17:20:30.636Z,100.00
2022-08-06T17:22:57.320Z,100.00
2022-08-06T17:25:51.013Z,100.00
2022-08-06T17:28:14.483Z,100.00
2022-08-06T17:30:41.519Z,100.00
2022-08-06T17:33:10.367Z,100.00
2022-08-06T17:36:29.631Z,100.00
2022-08-06T17:38:24.496Z,100.00
2022-08-06T17:40:51.701Z,100.00
2022-08-06T17:43:54.132Z,100.00
2022-08-06T17:46:26.547Z,100.00
2022-08-06T17:48:53.635Z,100.00
2022-08-06T17:51:21.932Z,100.00
2022-08-06T17:53:55.193Z,100.00
2022-08-06T17:56:29.597Z,100.00
2022-08-06T17:59:16.953Z,100.00
2022-08-06T18:01:48.981Z,100.00
2022-08-06T18:04:22.341Z,100.00
2022-08-06T18:06:58.064Z,100.00
2022-08-06T18:10:09.755Z,100.00
2022-08-06T18:12:12.921Z,100.00
2022-08-06T18:14:40.919Z,100.00
2022-08-06T18:17:17.127Z,100.00
2022-08-06T18:19:44.120Z,100.00
2022-08-06T18:22:21.573Z,100.00
2022-08-06T18:24:54.235Z,100.00
2022-08-06T18:27:54.399Z,100.00
2022-08-06T18:30:29.923Z,100.00
2022-08-06T18:33:00.531Z,100.00
2022-08-06T18:35:33.553Z,100.00
2022-08-06T18:38:12.352Z,100.00
2022-08-06T18:40:53.942Z,100.00
2022-08-06T18:43:24.195Z,100.00
2022-08-06T18:46:10.815Z,100.00
2022-08-06T18:48:37.503Z,100.00
2022-08-06T18:51:06.839Z,100.00
2022-08-06T18:54:01.429Z,100.00
2022-08-06T18:56:20.160Z,100.00
2022-08-06T18:58:47.065Z,100.00
2022-08-06T19:01:21.592Z,100.00
2022-08-06T19:03:50.514Z,100.00
2022-08-06T19:06:18.301Z,100.00
2022-08-06T19:08:59.398Z,100.00
2022-08-06T19:11:38.749Z,100.00
2022-08-06T19:14:18.250Z,100.00
2022-08-06T19:16:50.390Z,100.00
2022-08-06T19:19:46.167Z,100.00
2022-08-06T19:22:09.711Z,100.00
2022-08-06T19:24:37.174Z,100.00
2022-08-06T19:27:06.552Z,100.00
2022-08-06T19:29:58.311Z,100.00
2022-08-06T19:32:28.566Z,100.00
2022-08-06T19:34:59.836Z,100.00
2022-08-06T19:37:59.642Z,100.00
2022-08-06T19:40:32.599Z,100.00
2022-08-06T19:44:28.549Z,100.00
2022-08-06T19:46:29.870Z,100.00
2022-08-06T19:48:34.978Z,100.00
2022-08-06T19:51:02.065Z,100.00
2022-08-06T19:53:31.240Z,100.00
2022-08-06T19:56:06.274Z,100.00
2022-08-06T19:58:36.319Z,100.00
2022-08-06T20:01:31.934Z,100.00
2022-08-06T20:03:56.138Z,100.00
2022-08-06T20:06:30.000Z,100.00
2022-08-06T20:09:29.692Z,100.00
2022-08-06T20:12:04.451Z,100.00
2022-08-06T20:14:34.234Z,100.00
2022-08-06T20:17:01.557Z,100.00
2022-08-06T20:20:06.858Z,100.00
2022-08-06T20:22:17.652Z,100.00
2022-08-06T20:24:46.117Z,100.00
2022-08-06T20:27:20.149Z,100.00
2022-08-06T20:30:04.707Z,100.00
2022-08-06T20:32:37.678Z,100.00
2022-08-06T20:35:06.598Z,100.00
2022-08-06T20:37:44.539Z,100.00
2022-08-06T20:40:20.570Z,100.00
2022-08-06T20:42:58.315Z,100.00
2022-08-06T20:45:57.459Z,100.00
2022-08-06T20:48:12.355Z,100.00
2022-08-06T20:50:47.127Z,100.00
2022-08-06T20:53:13.806Z,100.00
2022-08-06T20:55:42.411Z,100.00
2022-08-06T20:58:09.470Z,100.00
2022-08-06T21:00:36.609Z,100.00
2022-08-06T21:05:10.790Z,100.00
2022-08-06T21:05:52.295Z,100.00
2022-08-06T21:08:26.828Z,100.00
2022-08-06T21:10:55.829Z,100.00
2022-08-06T21:13:29.650Z,100.00
2022-08-06T21:16:13.680Z,100.00
2022-08-06T21:18:43.482Z,100.00
2022-08-06T21:21:11.344Z,100.00
2022-08-06T21:23:55.558Z,100.00
2022-08-06T21:26:25.267Z,100.00
2022-08-06T21:28:56.353Z,100.00
2022-08-06T21:31:27.602Z,100.00
2022-08-06T21:33:56.525Z,100.00
2022-08-06T21:36:26.719Z,100.00
2022-08-06T21:38:57.319Z,100.00
2022-08-06T21:41:49.919Z,100.00
2022-08-06T21:44:14.808Z,100.00
2022-08-06T21:46:44.655Z,100.00
2022-08-06T21:49:58.201Z,100.00
2022-08-06T21:52:09.296Z,100.00
2022-08-06T21:54:37.292Z,100.00
2022-08-06T21:57:12.518Z,100.00
2022-08-06T21:59:46.135Z,100.00
2022-08-06T22:02:21.282Z,100.00
2022-08-06T22:05:00.111Z,100.00
2022-08-06T22:08:06.301Z,100.00
2022-08-06T22:10:15.648Z,100.00
2022-08-06T22:13:12.398Z,100.00
2022-08-06T22:15:45.277Z,100.00
2022-08-06T22:18:16.843Z,100.00
2022-08-06T22:20:45.367Z,100.00
2022-08-06T22:23:12.284Z,100.00
2022-08-06T22:25:39.163Z,100.00
2022-08-06T22:28:09.148Z,100.00
2022-08-06T22:30:37.527Z,100.00
2022-08-06T22:33:17.142Z,100.00
2022-08-06T22:35:57.363Z,100.00
2022-08-06T22:38:31.770Z,100.00
2022-08-06T22:40:59.421Z,100.00
2022-08-06T22:43:51.852Z,50.53
2022-08-06T22:46:12.931Z,51.08
2022-08-06T22:48:39.602Z,51.28
2022-08-06T22:51:18.719Z,51.64
2022-08-06T22:54:27.029Z,51.84
2022-08-06T22:56:36.049Z,52.50
2022-08-06T22:59:18.837Z,52.08
2022-08-06T23:02:05.906Z,52.51
2022-08-06T23:04:37.305Z,52.10
2022-08-06T23:07:09.350Z,51.64
2022-08-06T23:09:38.103Z,50.96
2022-08-06T23:12:07.563Z,51.23
2022-08-06T23:14:37.521Z,51.14
2022-08-06T23:17:06.049Z,50.89
2022-08-06T23:19:57.153Z,50.93
2022-08-06T23:22:23.318Z,51.38
2022-08-06T23:25:03.580Z,51.12
2022-08-06T23:27:46.741Z,51.61
2022-08-06T23:30:19.982Z,52.10
2022-08-06T23:32:49.068Z,51.95
2022-08-06T23:35:36.086Z,52.26
2022-08-06T23:38:31.016Z,52.13
2022-08-06T23:40:51.767Z,50.99
2022-08-06T23:43:19.517Z,51.18
2022-08-06T23:45:47.421Z,51.35
2022-08-06T23:48:16.759Z,51.83
2022-08-06T23:50:52.949Z,52.13
2022-08-06T23:54:05.928Z,52.42
2022-08-06T23:56:10.154Z,52.49
2022-08-06T23:58:38.277Z,52.19
